San Antonio, FL (33576)

5:57 PM EDT on March 27, 2015 (GMT -0400)
Rural Wesley Chapel | | Change Station
CLOSE
Current Station
Personal Weather Station
Location: Wesley Chapel, FL
Elevation: 125 ft
Nearby Weather Stations

Elev 125 ft 28.30 °N, 82.30 °W | Updated 9 minutes ago

Rain
Rain
64.9 °F
Feels Like 64.9 °F
N
4.2
Wind Variable Wind from SSW

Today
High -- | Low -- °F
--% Chance of Precip.
Yesterday
High -- | Low -- °F
Precip. -- in
7:25 AM 7:44 PM
First Quarter, 56% visible
Pressure 29.84 in
Visibility 3.0 miles
Clouds Scattered Clouds 1900 ft
Mostly Cloudy 4900 ft
Overcast 6000 ft
Dew Point 65 °F
Humidity 99%
Rainfall 0.64 in
Snow Depth Not available.
UV 1 out of 12
Pollen 5.00 out of 12
Air Quality Not available.
Flu Activity Not available.
METAR KZPH 272135Z AUTO 22009G16KT 3SM RA SCT019 BKN049 OVC060 18/18 A2984 RMK AO2 P0008 LTG DSNT S

More Conditions Fewer Conditions

Pressure 29.84 in
Visibility 3.0 miles
Clouds Scattered Clouds 1900 ft
Mostly Cloudy 4900 ft
Overcast 6000 ft
Dew Point 65 °F
Humidity 99%
Rainfall 0.64 in
Snow Depth Not available.
UV 1 out of 12
Pollen 5.00 out of 12
Air Quality Not available.
Flu Activity Not available.
METAR KZPH 272135Z AUTO 22009G16KT 3SM RA SCT019 BKN049 OVC060 18/18 A2984 RMK AO2 P0008 LTG DSNT S

More Conditions Fewer Conditions

10-Day Weather Forecast

Almanac

Astronomy

Mar. 27, 2015 Rise Set
Actual Time
Civil Twilight
Nautical Twilight
Astronomical Twilight
Moon
Length of Visible Light
Length of Day
Tomorrow will be .
, % of the Moon is Illuminated

Today's Extremes

State Highs State Lows

Community

WunderPhotos

Upload Photos

1,808,834 photos uploaded!

WunderBlogs® & News

Nearby

Air Quality

  Air Quality AQ Index Pollutant
Not available.

Snow Depth

Station Depth Elevation

Earthquake Activity

City Distance Mag. Time & Date
Minimum magnitude displayed is 2.5.

Coastal Water Temperatures

Place Temperature

Stations

Nearby Weather Stations

Station Location Temp. Windchill Dew Point Humidity Wind Precip. Elev Updated Type